HEAX/ALY METAR and TAF weather

Enter ICAO airport designator
Station Type Date Time Source
HEAX METAR 2021/05/16 00:00 UTC NOAA

HEAX 160000Z 08006KT CAVOK 20/16 Q1008 NOSIG


Station Type Date Time Source
HEAX Decoded METAR 2021/05/16 00:00 UTC NOAA

Alexandria / Nouzha, Egypt (HEAX) 31-12N 029-57E 7M
May 15, 2021 - 08:00 PM EDT / 2021.05.16 0000 UTC
Wind: from the E (080 degrees) at 7 MPH (6 KT):0
Visibility: greater than 7 mile(s):0
Temperature: 68 F (20 C)
Dew Point: 60 F (16 C)
Relative Humidity: 77%
Pressure (altimeter): 29.77 in. Hg (1008 hPa)
ob: HEAX 160000Z 08006KT CAVOK 20/16 Q1008 NOSIG
cycle: 0

Station Type Date Time Source
HEAX TAF 2021/05/16 00:40 UTC NOAA

TAF HEAX 152300Z 1600/1706 08007KT CAVOK
TEMPO 1600/1606 VRB03KT 3000 BR NSC BEMCG 1606/1608 34011KT

Example: see airport list